Portada
METAR-TAF:

METAR-TAF

Aeroports :

Chiang Mai, Tailàndia

latitud: 18-47N, longitud: 098-59E, altitud: 312 m

Observació

L'informe es va fer fa 40 minuts, a les 01:30 UTC
Vent calma
Temperatura 18°C
Humitat 77%
Pressió 1022 hPa
Visibilitat: 7000 m

METAR: VTCC 130130Z 00000KT 7000 NSC 18/14 Q1022 NOSIG

Hora: 09:10 (02:10 UTC)

Pronòstic

L'informe es va fer fa 3 hores i 10 minuts, a les 23:00 UTC
Pronòstic vàlid del 13 a les 00 UTC al 14 a les 06 UTC
Vent 5 kt del Sud/Sud-Oest
Visibilitat: 9000 m

TAF: VTCC 122300Z 1300/1406 20005KT 9000 NSC

Observacions i pronòstics meteorològics de més de 4000 aeroports (METAR i TAF).

Les estacions disponibles són els punts grocs i vermells al mapa.

Posi el ratolí al punt desitjat per veure el nom de l'estació.

Feu clic per veure les observacions i els pronòstics meteorològics.

Per canviar el mapa: feu clic els botons verds amb una creu de color negre per apropar; al botó verd amb un guió per allunyar la imatge; o en les fletxes verdes per a mapes adjacents.


METAR-TAF: